Boryslav — ENLB — position and weather

sailwx.info

Track history (hours):
 
Tides and Currents Weather Stations Pressure Air Temp Water Temp Dewpoint Dewpoint Depression Visibility Wind Speed Wind Dir Waves Ship Positions

Boryslav

Last reported at 2016-Apr-27 04:33 UTC. Time now 2016-Apr-29 01:53 UTC.
Position N 46°34' E 031°57'.

Length 86 m; draft 2.4 m.

Type: Ship. MMSI: 272088700.

Date/timePositionNaut miles runAvg speedWind from/ knotsBaromVisibWave heightAir tempDewpointWater temp
2016-Apr-27 04:33N 46°34' E 031°57'7 6.4
2016-Apr-27 03:26N 46°36' E 031°47'2 0.3
2016-Apr-26 20:31N 46°36' E 031°44'36 4.0
2016-Apr-26 11:32N 46°31' E 030°52'5 5.4
2016-Apr-26 10:34N 46°29' E 030°45'0 0.0
2016-Apr-26 09:33N 46°29' E 030°45'0 0.0
2016-Apr-26 08:33N 46°29' E 030°45'0 0.0
2016-Apr-26 07:33N 46°29' E 030°45'0 0.0
2016-Apr-26 06:33N 46°29' E 030°45'0 0.0
2016-Apr-26 05:34N 46°29' E 030°45'0 0.0
2016-Apr-26 04:34N 46°29' E 030°45'0 0.0
2016-Apr-26 03:34N 46°29' E 030°45'0 0.0
2016-Apr-26 02:33N 46°29' E 030°45'0 0.0
2016-Apr-26 01:33N 46°29' E 030°45'0 0.0
2016-Apr-26 00:33N 46°29' E 030°45'0 0.0
2016-Apr-25 23:34N 46°29' E 030°45'0 0.0
2016-Apr-25 22:33N 46°29' E 030°45'0 0.0
2016-Apr-25 21:33N 46°29' E 030°45'0 0.0
2016-Apr-25 20:33N 46°29' E 030°45'0 0.0
2016-Apr-25 19:33N 46°29' E 030°45'0 0.0
2016-Apr-25 18:33N 46°29' E 030°45'0 0.0
2016-Apr-25 17:34N 46°29' E 030°45'0 0.0
2016-Apr-25 16:33N 46°29' E 030°45'0 0.0
2016-Apr-25 15:34N 46°29' E 030°45'2 1.9
2016-Apr-25 14:33N 46°30' E 030°47'44 6.3
2016-Apr-25 07:31N 46°35' E 031°51'6 6.1
2016-Apr-25 06:33N 46°33' E 031°59'6 6.2
2016-Apr-25 05:33N 46°32' E 032°08'134 3.1
2016-Apr-23 10:12N 47°35' E 035°02'5 4.9
2016-Apr-23 09:07N 47°39' E 035°06'3 5.3
2016-Apr-23 08:33N 47°42' E 035°08'5 4.9
2016-Apr-23 07:33N 47°46' E 035°09'2 2.1
2016-Apr-23 06:33N 47°49' E 035°09'0 0.0
2016-Apr-23 05:33N 47°49' E 035°09'3 2.6
2016-Apr-23 04:33N 47°50' E 035°06'2 1.8
2016-Apr-23 03:33N 47°52' E 035°06'1 1.1
2016-Apr-23 02:33N 47°53' E 035°06'0 0.0
2016-Apr-23 01:33N 47°53' E 035°06'0 0.0
2016-Apr-23 00:33N 47°53' E 035°06'0 0.0
2016-Apr-22 23:33N 47°53' E 035°06'3 3.1
2016-Apr-22 22:33N 47°56' E 035°07'5 4.5
2016-Apr-22 21:33N 48°00' E 035°08'  
Track history (hours):
 
Tides and Currents Weather Stations Pressure Air Temp Water Temp Dewpoint Dewpoint Depression Visibility Wind Speed Wind Dir Waves Ship Positions

Boryslav

Last reported at 2016-Apr-27 04:33 UTC. Time now 2016-Apr-29 01:53 UTC.
Position N 46°34' E 031°57'.

Length 86 m; draft 2.4 m.

Type: Ship. MMSI: 272088700.

Date/timePositionNaut miles runAvg speedWind from/ knotsBaromVisibWave heightAir tempDewpointWater temp
2016-Apr-27 04:33N 46°34' E 031°57'7 6.4
2016-Apr-27 03:26N 46°36' E 031°47'2 0.3
2016-Apr-26 20:31N 46°36' E 031°44'36 4.0
2016-Apr-26 11:32N 46°31' E 030°52'5 5.4
2016-Apr-26 10:34N 46°29' E 030°45'0 0.0
2016-Apr-26 09:33N 46°29' E 030°45'0 0.0
2016-Apr-26 08:33N 46°29' E 030°45'0 0.0
2016-Apr-26 07:33N 46°29' E 030°45'0 0.0
2016-Apr-26 06:33N 46°29' E 030°45'0 0.0
2016-Apr-26 05:34N 46°29' E 030°45'0 0.0
2016-Apr-26 04:34N 46°29' E 030°45'0 0.0
2016-Apr-26 03:34N 46°29' E 030°45'0 0.0
2016-Apr-26 02:33N 46°29' E 030°45'0 0.0
2016-Apr-26 01:33N 46°29' E 030°45'0 0.0
2016-Apr-26 00:33N 46°29' E 030°45'0 0.0
2016-Apr-25 23:34N 46°29' E 030°45'0 0.0
2016-Apr-25 22:33N 46°29' E 030°45'0 0.0
2016-Apr-25 21:33N 46°29' E 030°45'0 0.0
2016-Apr-25 20:33N 46°29' E 030°45'0 0.0
2016-Apr-25 19:33N 46°29' E 030°45'0 0.0
2016-Apr-25 18:33N 46°29' E 030°45'0 0.0
2016-Apr-25 17:34N 46°29' E 030°45'0 0.0
2016-Apr-25 16:33N 46°29' E 030°45'0 0.0
2016-Apr-25 15:34N 46°29' E 030°45'2 1.9
2016-Apr-25 14:33N 46°30' E 030°47'44 6.3
2016-Apr-25 07:31N 46°35' E 031°51'6 6.1
2016-Apr-25 06:33N 46°33' E 031°59'6 6.2
2016-Apr-25 05:33N 46°32' E 032°08'134 3.1
2016-Apr-23 10:12N 47°35' E 035°02'5 4.9
2016-Apr-23 09:07N 47°39' E 035°06'3 5.3
2016-Apr-23 08:33N 47°42' E 035°08'5 4.9
2016-Apr-23 07:33N 47°46' E 035°09'2 2.1
2016-Apr-23 06:33N 47°49' E 035°09'0 0.0
2016-Apr-23 05:33N 47°49' E 035°09'3 2.6
2016-Apr-23 04:33N 47°50' E 035°06'2 1.8
2016-Apr-23 03:33N 47°52' E 035°06'1 1.1
2016-Apr-23 02:33N 47°53' E 035°06'0 0.0
2016-Apr-23 01:33N 47°53' E 035°06'0 0.0
2016-Apr-23 00:33N 47°53' E 035°06'0 0.0
2016-Apr-22 23:33N 47°53' E 035°06'3 3.1
2016-Apr-22 22:33N 47°56' E 035°07'5 4.5
2016-Apr-22 21:33N 48°00' E 035°08'  

Dump ship's entire track history